Columbus, GA

5:01 PM EST on February 27, 2015 (GMT -0500)
RoseParadiseFarm Hwy 36 | Change Station
CLOSE
Current Station
Personal Weather Station
Location: Waverly Hall, GA
Elevation: 804 ft
Nearby Weather Stations

Elev 804 ft 32.70 °N, 84.70 °W | Updated 18 seconds ago

Clear
Clear
54.7 °F
Feels Like 54.7 °F
N
3.0
Wind Variable Wind from NE
Gusts 9.0 mph

Today
High -- | Low -- °F
--% Chance of Precip.
Yesterday
High -- | Low -- °F
Precip. -- in
7:09 AM 6:34 PM
Waxing Gibbous, 72% visible
Pressure 30.32 in
Visibility 10.0 miles
Clouds Clear
Dew Point 27 °F
Humidity 34%
Rainfall 0.00 in
Snow Depth Not available.
UV 2 out of 12
Pollen 8.30 out of 12
Air Quality Not available.
Flu Activity Not available.
METAR KCSG 272151Z 02006KT 10SM CLR 13/M06 A3032 RMK AO2 SLP266 T01331056

More Conditions Fewer Conditions

Pressure 30.32 in
Visibility 10.0 miles
Clouds Clear
Dew Point 27 °F
Humidity 34%
Rainfall 0.00 in
Snow Depth Not available.
UV 2 out of 12
Pollen 8.30 out of 12
Air Quality Not available.
Flu Activity Not available.
METAR KCSG 272151Z 02006KT 10SM CLR 13/M06 A3032 RMK AO2 SLP266 T01331056

More Conditions Fewer Conditions

10-Day Weather Forecast

Almanac

Astronomy

Feb. 27, 2015 Rise Set
Actual Time
Civil Twilight
Nautical Twilight
Astronomical Twilight
Moon
Length of Visible Light
Length of Day
Tomorrow will be .
, % of the Moon is Illuminated

Today's Extremes

State Highs State Lows

Community

WunderPhotos

Upload Photos

1,800,848 photos uploaded!

WunderBlogs® & News

Nearby

Air Quality

  Air Quality AQ Index Pollutant
Not available.

Snow Depth

Station Depth Elevation

Earthquake Activity

City Distance Mag. Time & Date
Minimum magnitude displayed is 2.5.

Coastal Water Temperatures

Place Temperature

Nearby Weather Stations